createdAt,value
2019-04-27T00:00:22.968Z,1.90
2019-04-27T00:02:57.469Z,2.00
2019-04-27T00:05:32.286Z,2.07
2019-04-27T00:08:02.943Z,2.33
2019-04-27T00:10:39.597Z,2.23
2019-04-27T00:13:09.079Z,2.47
2019-04-27T00:15:40.068Z,2.20
2019-04-27T00:18:17.041Z,2.00
2019-04-27T00:20:48.092Z,2.00
2019-04-27T00:23:25.106Z,2.20
2019-04-27T00:25:54.398Z,2.20
2019-04-27T00:28:23.794Z,2.57
2019-04-27T00:30:53.234Z,1.60
2019-04-27T00:33:23.782Z,2.30
2019-04-27T00:36:00.578Z,2.07
2019-04-27T00:38:31.491Z,1.70
2019-04-27T00:41:09.795Z,1.80
2019-04-27T00:43:42.739Z,2.37
2019-04-27T00:46:13.857Z,2.10
2019-04-27T00:48:47.230Z,2.20
2019-04-27T00:51:16.630Z,2.50
2019-04-27T00:53:45.914Z,1.60
2019-04-27T00:56:33.892Z,2.00
2019-04-27T00:59:19.964Z,2.20
2019-04-27T01:02:09.617Z,2.20
2019-04-27T01:04:40.603Z,2.07
2019-04-27T01:07:14.078Z,2.20
2019-04-27T01:09:46.263Z,1.97
2019-04-27T01:12:15.641Z,2.13
2019-04-27T01:14:45.212Z,2.13
2019-04-27T01:17:14.686Z,1.90
2019-04-27T01:19:43.969Z,2.10
2019-04-27T01:22:13.385Z,1.77
2019-04-27T01:24:42.689Z,1.80
2019-04-27T01:27:19.756Z,2.17
2019-04-27T01:29:50.061Z,2.20
2019-04-27T01:32:20.761Z,2.00
2019-04-27T01:34:50.308Z,2.20
2019-04-27T01:37:21.226Z,2.13
2019-04-27T01:39:52.334Z,2.00
2019-04-27T01:42:24.521Z,2.13
2019-04-27T01:44:53.819Z,1.63
2019-04-27T01:47:23.176Z,1.73
2019-04-27T01:49:52.475Z,1.90
2019-04-27T01:52:21.794Z,2.10
2019-04-27T01:54:51.214Z,1.80
2019-04-27T01:57:20.519Z,1.93
2019-04-27T01:59:49.818Z,1.80
2019-04-27T02:02:26.709Z,2.20
2019-04-27T02:04:59.400Z,2.00
2019-04-27T02:07:30.067Z,2.00
2019-04-27T02:09:59.413Z,1.80
2019-04-27T02:12:29.408Z,2.17
2019-04-27T02:14:59.701Z,1.87
2019-04-27T02:17:29.007Z,1.80
2019-04-27T02:19:59.535Z,2.00
2019-04-27T02:22:29.706Z,1.80
2019-04-27T02:24:59.181Z,2.10
2019-04-27T02:27:30.523Z,1.90
2019-04-27T02:30:11.713Z,1.80
2019-04-27T02:32:45.599Z,1.83
2019-04-27T02:35:14.917Z,2.30
2019-04-27T02:37:44.278Z,1.83
2019-04-27T02:40:36.508Z,1.97
2019-04-27T02:43:09.796Z,2.20
2019-04-27T02:45:40.403Z,1.90
2019-04-27T02:48:10.004Z,1.93
2019-04-27T02:50:40.040Z,2.00
2019-04-27T02:53:11.015Z,2.13
2019-04-27T02:55:41.005Z,2.00
2019-04-27T02:58:13.044Z,2.07
2019-04-27T03:00:41.341Z,1.87
2019-04-27T03:03:12.352Z,2.23
2019-04-27T03:05:41.643Z,2.30
2019-04-27T03:08:11.039Z,2.47
2019-04-27T03:10:40.392Z,2.37
2019-04-27T03:13:17.083Z,2.90
2019-04-27T03:15:49.736Z,3.10
2019-04-27T03:18:35.752Z,3.23
2019-04-27T03:21:13.117Z,3.30
2019-04-27T03:23:41.797Z,4.07
2019-04-27T03:26:14.427Z,4.03
2019-04-27T03:28:43.853Z,4.33
2019-04-27T03:31:14.190Z,4.50
2019-04-27T03:33:43.995Z,4.63
2019-04-27T03:36:13.521Z,4.40
2019-04-27T03:38:42.948Z,4.53
2019-04-27T03:41:12.567Z,4.73
2019-04-27T03:43:41.969Z,4.43
2019-04-27T03:46:11.311Z,4.23
2019-04-27T03:48:40.969Z,4.20
2019-04-27T03:51:26.931Z,4.40
2019-04-27T03:54:00.872Z,5.33
2019-04-27T03:56:43.964Z,4.27
2019-04-27T03:59:14.972Z,4.30
2019-04-27T04:01:44.260Z,4.70
2019-04-27T04:04:13.812Z,4.97
2019-04-27T04:06:45.843Z,4.73
2019-04-27T04:09:15.214Z,4.60
2019-04-27T04:11:51.815Z,4.57
2019-04-27T04:14:25.027Z,4.70
2019-04-27T04:17:02.289Z,4.43
2019-04-27T04:19:47.363Z,4.13
2019-04-27T04:22:00.987Z,4.20
2019-04-27T04:24:31.820Z,4.43
2019-04-27T04:27:01.326Z,4.53
2019-04-27T04:29:30.891Z,4.70
2019-04-27T04:32:01.699Z,4.27
2019-04-27T04:34:31.144Z,4.57
2019-04-27T04:37:00.700Z,4.57
2019-04-27T04:39:30.671Z,4.57
2019-04-27T04:42:19.733Z,4.93
2019-04-27T04:44:56.570Z,4.73
2019-04-27T04:47:33.529Z,4.67
2019-04-27T04:50:14.067Z,5.07
2019-04-27T04:52:39.597Z,5.07
2019-04-27T04:55:10.240Z,6.00
2019-04-27T04:57:40.132Z,5.33
2019-04-27T05:00:10.057Z,6.17
2019-04-27T05:02:39.861Z,5.83
2019-04-27T05:05:09.545Z,5.70
2019-04-27T05:07:38.965Z,5.63
2019-04-27T05:10:09.064Z,6.40
2019-04-27T05:12:39.699Z,5.53
2019-04-27T05:15:09.389Z,5.73
2019-04-27T05:17:39.926Z,5.57
2019-04-27T05:20:26.457Z,5.93
2019-04-27T05:22:56.181Z,6.00
2019-04-27T05:25:25.482Z,5.73
2019-04-27T05:27:56.484Z,5.80
2019-04-27T05:30:28.740Z,6.37
2019-04-27T05:32:58.532Z,6.63
2019-04-27T05:35:29.758Z,6.20
2019-04-27T05:38:00.866Z,6.43
2019-04-27T05:40:32.786Z,7.53
2019-04-27T05:43:02.121Z,7.07
2019-04-27T05:45:53.219Z,6.20
2019-04-27T05:48:27.773Z,6.37
2019-04-27T05:50:58.772Z,6.83
2019-04-27T05:53:27.055Z,6.47
2019-04-27T05:55:59.449Z,6.53
2019-04-27T05:58:29.067Z,6.63
2019-04-27T06:00:59.494Z,7.10
2019-04-27T06:03:30.536Z,6.63
2019-04-27T06:06:01.726Z,5.80
2019-04-27T06:08:32.585Z,6.03
2019-04-27T06:11:04.851Z,6.30
2019-04-27T06:13:34.133Z,5.53
2019-04-27T06:16:03.511Z,6.07
2019-04-27T06:18:35.483Z,5.60
2019-04-27T06:21:04.871Z,5.67
2019-04-27T06:23:35.031Z,5.63
2019-04-27T06:26:04.519Z,4.43
2019-04-27T06:28:33.899Z,4.57
2019-04-27T06:31:03.257Z,3.90
2019-04-27T06:33:34.472Z,4.43
2019-04-27T06:36:06.800Z,3.93
2019-04-27T06:38:36.087Z,4.10
2019-04-27T06:41:05.387Z,4.10
2019-04-27T06:43:36.442Z,4.00
2019-04-27T06:46:05.745Z,3.77
2019-04-27T06:48:35.104Z,3.37
2019-04-27T06:51:05.977Z,3.47
2019-04-27T06:53:35.896Z,3.23
2019-04-27T06:56:08.772Z,3.23
2019-04-27T06:58:40.815Z,2.83
2019-04-27T07:01:11.002Z,3.03
2019-04-27T07:03:41.420Z,2.90
2019-04-27T07:06:13.686Z,2.93
2019-04-27T07:08:43.974Z,2.77
2019-04-27T07:11:13.354Z,2.70
2019-04-27T07:13:44.257Z,2.90
2019-04-27T07:16:13.639Z,3.40
2019-04-27T07:18:42.942Z,2.87
2019-04-27T07:21:18.952Z,2.73
2019-04-27T07:23:59.684Z,3.33
2019-04-27T07:26:32.039Z,2.60
2019-04-27T07:29:02.223Z,2.60
2019-04-27T07:31:31.974Z,3.00
2019-04-27T07:34:02.598Z,2.57
2019-04-27T07:36:34.919Z,2.73
2019-04-27T07:39:07.324Z,2.93
2019-04-27T07:41:36.678Z,3.00
2019-04-27T07:44:10.624Z,2.97
2019-04-27T07:46:42.834Z,2.70
2019-04-27T07:49:12.202Z,2.60
2019-04-27T07:51:42.606Z,2.47
2019-04-27T07:54:11.886Z,2.73
2019-04-27T07:56:41.266Z,2.70
2019-04-27T07:59:10.603Z,2.67
2019-04-27T08:01:42.590Z,2.57
2019-04-27T08:04:11.912Z,2.43
2019-04-27T08:06:43.667Z,2.80
2019-04-27T08:09:15.740Z,3.20
2019-04-27T08:11:48.713Z,2.90
2019-04-27T08:14:19.544Z,2.87
2019-04-27T08:16:51.556Z,2.90
2019-04-27T08:19:20.929Z,3.20
2019-04-27T08:21:52.012Z,3.40
2019-04-27T08:24:23.003Z,3.27
2019-04-27T08:26:59.425Z,3.03
2019-04-27T08:29:42.627Z,3.60
2019-04-27T08:32:16.500Z,2.87
2019-04-27T08:34:45.822Z,2.80
2019-04-27T08:37:15.134Z,1.57
2019-04-27T08:39:49.417Z,2.33
2019-04-27T08:42:20.206Z,2.00
2019-04-27T08:44:51.230Z,2.47
2019-04-27T08:47:20.514Z,1.77
2019-04-27T08:49:49.859Z,2.10
2019-04-27T08:52:20.857Z,2.00
2019-04-27T08:54:51.101Z,1.70
2019-04-27T08:57:21.246Z,1.70
2019-04-27T08:59:51.083Z,1.90
2019-04-27T09:02:23.194Z,2.20
2019-04-27T09:04:55.689Z,2.43
2019-04-27T09:07:34.117Z,2.60
2019-04-27T09:10:09.418Z,1.90
2019-04-27T09:12:46.196Z,2.57
2019-04-27T09:15:19.589Z,2.50
2019-04-27T09:17:50.532Z,2.50
2019-04-27T09:20:30.482Z,3.13
2019-04-27T09:22:59.902Z,2.60
2019-04-27T09:25:30.190Z,2.50
2019-04-27T09:28:02.416Z,2.83
2019-04-27T09:30:35.024Z,3.10
2019-04-27T09:33:06.114Z,3.00
2019-04-27T09:35:36.962Z,3.00
2019-04-27T09:38:07.893Z,2.57
2019-04-27T09:40:37.286Z,3.00
2019-04-27T09:43:07.526Z,3.17
2019-04-27T09:45:37.247Z,2.40
2019-04-27T09:48:09.842Z,3.60
2019-04-27T09:50:39.227Z,3.17
2019-04-27T09:53:13.019Z,3.13
2019-04-27T09:55:42.347Z,2.97
2019-04-27T09:58:11.710Z,3.37
2019-04-27T10:00:45.350Z,3.07
2019-04-27T10:03:16.464Z,2.93
2019-04-27T10:05:51.009Z,3.07
2019-04-27T10:08:21.105Z,2.60
2019-04-27T10:10:51.923Z,3.20
2019-04-27T10:13:25.671Z,2.97
2019-04-27T10:15:55.654Z,2.40
2019-04-27T10:18:26.558Z,2.40
2019-04-27T10:20:59.769Z,2.23
2019-04-27T10:23:30.182Z,2.03
2019-04-27T10:25:59.634Z,1.43
2019-04-27T10:28:29.272Z,2.03
2019-04-27T10:31:01.534Z,1.97
2019-04-27T10:33:35.866Z,1.97
2019-04-27T10:36:06.606Z,2.13
2019-04-27T10:38:37.128Z,2.30
2019-04-27T10:41:09.432Z,2.07
2019-04-27T10:43:39.613Z,2.17
2019-04-27T10:46:08.918Z,1.80
2019-04-27T10:48:38.230Z,2.50
2019-04-27T10:51:07.570Z,2.83
2019-04-27T10:53:38.955Z,2.23
2019-04-27T10:56:10.634Z,2.73
2019-04-27T10:58:42.462Z,2.50
2019-04-27T11:01:11.994Z,2.20
2019-04-27T11:04:01.310Z,1.80
2019-04-27T11:06:35.411Z,1.60
2019-04-27T11:09:07.794Z,1.03
2019-04-27T11:11:42.274Z,1.70
2019-04-27T11:14:11.630Z,1.47
2019-04-27T11:16:45.783Z,0.83
2019-04-27T11:19:16.732Z,1.30
2019-04-27T11:21:45.932Z,1.00
2019-04-27T11:24:15.214Z,0.80
2019-04-27T11:26:44.501Z,0.53
2019-04-27T11:29:17.220Z,0.50
2019-04-27T11:31:46.708Z,0.80
2019-04-27T11:34:19.342Z,0.90
2019-04-27T11:36:53.267Z,0.70
2019-04-27T11:39:25.946Z,0.60
2019-04-27T11:41:56.875Z,0.90
2019-04-27T11:44:26.230Z,1.23
2019-04-27T11:46:55.948Z,1.47
2019-04-27T11:49:26.514Z,1.83
2019-04-27T11:51:56.729Z,1.20
2019-04-27T11:54:29.614Z,1.40
2019-04-27T11:56:58.984Z,1.73
2019-04-27T11:59:28.258Z,1.90
2019-04-27T12:01:58.729Z,2.23
2019-04-27T12:04:28.072Z,2.07
2019-04-27T12:06:59.202Z,1.80
2019-04-27T12:09:28.517Z,1.73
2019-04-27T12:12:12.629Z,2.10
2019-04-27T12:14:29.894Z,2.10
2019-04-27T12:16:59.223Z,2.53
2019-04-27T12:19:28.508Z,2.83
2019-04-27T12:21:57.811Z,1.93
2019-04-27T12:24:27.110Z,1.47
2019-04-27T12:27:13.421Z,1.30
2019-04-27T12:30:03.789Z,1.40
2019-04-27T12:32:37.821Z,2.43
2019-04-27T12:35:08.788Z,3.30
2019-04-27T12:37:39.218Z,2.83
2019-04-27T12:40:13.136Z,3.43
2019-04-27T12:42:43.234Z,3.30
2019-04-27T12:45:14.361Z,2.97
2019-04-27T12:47:43.679Z,3.30
2019-04-27T12:50:17.241Z,2.97
2019-04-27T12:52:48.388Z,2.80
2019-04-27T12:55:19.313Z,2.90
2019-04-27T12:57:50.349Z,2.80
2019-04-27T13:00:22.896Z,2.60
2019-04-27T13:02:52.232Z,3.07
2019-04-27T13:05:21.709Z,3.10
2019-04-27T13:07:51.063Z,3.10
2019-04-27T13:10:21.881Z,3.10
2019-04-27T13:12:51.209Z,2.67
2019-04-27T13:15:22.147Z,2.80
2019-04-27T13:17:53.027Z,2.83
2019-04-27T13:20:22.341Z,2.83
2019-04-27T13:22:51.729Z,2.73
2019-04-27T13:25:21.107Z,3.00
2019-04-27T13:27:51.183Z,2.80
2019-04-27T13:30:23.052Z,3.03
2019-04-27T13:32:56.217Z,2.80
2019-04-27T13:35:25.940Z,2.67
2019-04-27T13:37:56.612Z,3.00
2019-04-27T13:40:27.453Z,3.10
2019-04-27T13:43:04.199Z,2.50
2019-04-27T13:45:35.909Z,2.87
2019-04-27T13:48:10.988Z,2.70
2019-04-27T13:50:45.558Z,3.03
2019-04-27T13:53:16.647Z,3.10
2019-04-27T13:55:46.462Z,2.83
2019-04-27T13:58:16.671Z,2.53
2019-04-27T14:00:46.028Z,1.60
2019-04-27T14:03:16.723Z,1.50
2019-04-27T14:05:47.784Z,2.03
2019-04-27T14:08:17.492Z,1.23
2019-04-27T14:10:46.792Z,1.73
2019-04-27T14:13:17.621Z,1.60
2019-04-27T14:15:48.962Z,1.87
2019-04-27T14:18:18.981Z,2.57
2019-04-27T14:20:49.136Z,1.97
2019-04-27T14:23:20.142Z,1.27
2019-04-27T14:25:49.467Z,1.90
2019-04-27T14:28:21.627Z,2.13
2019-04-27T14:30:50.940Z,2.67
2019-04-27T14:33:20.231Z,2.93
2019-04-27T14:35:51.379Z,2.83
2019-04-27T14:38:20.807Z,3.07
2019-04-27T14:40:50.331Z,2.60
2019-04-27T14:43:22.807Z,2.00
2019-04-27T14:45:52.264Z,2.40
2019-04-27T14:48:21.716Z,2.07
2019-04-27T14:50:54.171Z,2.60
2019-04-27T14:53:23.529Z,2.20
2019-04-27T14:55:52.917Z,2.47
2019-04-27T14:58:22.385Z,2.50
2019-04-27T15:00:54.596Z,2.50
2019-04-27T15:03:24.195Z,2.43
2019-04-27T15:05:55.198Z,3.07
2019-04-27T15:08:25.545Z,2.83
2019-04-27T15:10:55.903Z,3.17
2019-04-27T15:13:25.295Z,3.17
2019-04-27T15:15:54.687Z,3.20
2019-04-27T15:18:25.719Z,3.40
2019-04-27T15:20:58.451Z,3.27
2019-04-27T15:23:26.634Z,2.97
2019-04-27T15:26:00.389Z,3.37
2019-04-27T15:28:34.595Z,3.07
2019-04-27T15:31:05.531Z,2.90
2019-04-27T15:33:54.714Z,2.57
2019-04-27T15:36:25.575Z,3.00
2019-04-27T15:38:59.943Z,2.90
2019-04-27T15:41:32.674Z,3.77
2019-04-27T15:44:05.776Z,3.13
2019-04-27T15:46:35.031Z,3.10
2019-04-27T15:49:10.554Z,3.03
2019-04-27T15:51:38.348Z,3.53
2019-04-27T15:54:12.343Z,3.47
2019-04-27T15:56:44.177Z,3.07
2019-04-27T15:59:13.467Z,3.27
2019-04-27T16:01:46.208Z,3.70
2019-04-27T16:04:17.132Z,3.27
2019-04-27T16:06:47.455Z,3.87
2019-04-27T16:09:25.390Z,3.30
2019-04-27T16:11:58.652Z,3.50
2019-04-27T16:14:26.715Z,3.43
2019-04-27T16:16:58.721Z,3.67
2019-04-27T16:19:28.880Z,3.23
2019-04-27T16:21:59.113Z,3.50
2019-04-27T16:24:31.344Z,3.87
2019-04-27T16:27:00.623Z,3.10
2019-04-27T16:29:32.693Z,3.60
2019-04-27T16:32:02.773Z,3.80
2019-04-27T16:34:37.330Z,4.27
2019-04-27T16:37:05.911Z,4.20
2019-04-27T16:39:39.690Z,3.33
2019-04-27T16:42:10.023Z,3.53
2019-04-27T16:44:39.971Z,3.47
2019-04-27T16:47:08.484Z,3.53
2019-04-27T16:49:38.185Z,3.63
2019-04-27T16:52:11.625Z,3.07
2019-04-27T16:54:41.698Z,4.07
2019-04-27T16:57:10.976Z,3.27
2019-04-27T16:59:45.725Z,4.73
2019-04-27T17:02:11.290Z,3.70
2019-04-27T17:04:44.458Z,4.03
2019-04-27T17:07:11.667Z,3.77
2019-04-27T17:09:44.631Z,3.17
2019-04-27T17:12:12.037Z,3.53
2019-04-27T17:14:45.754Z,3.87
2019-04-27T17:17:33.454Z,3.67
2019-04-27T17:20:04.511Z,2.70
2019-04-27T17:22:35.803Z,2.97
2019-04-27T17:25:08.932Z,3.00
2019-04-27T17:27:43.163Z,3.23
2019-04-27T17:30:14.350Z,3.30
2019-04-27T17:32:54.663Z,2.63
2019-04-27T17:35:23.981Z,3.07
2019-04-27T17:37:59.362Z,3.00
2019-04-27T17:40:29.998Z,2.70
2019-04-27T17:43:06.799Z,3.27
2019-04-27T17:45:36.244Z,3.23
2019-04-27T17:48:07.420Z,3.03
2019-04-27T17:50:38.665Z,2.73
2019-04-27T17:53:10.934Z,3.53
2019-04-27T17:55:40.239Z,3.20
2019-04-27T17:58:09.537Z,3.20
2019-04-27T18:00:43.222Z,3.00
2019-04-27T18:03:12.524Z,2.80
2019-04-27T18:05:43.914Z,3.03
2019-04-27T18:08:13.559Z,3.10
2019-04-27T18:10:44.059Z,2.47
2019-04-27T18:13:13.418Z,3.20
2019-04-27T18:15:45.673Z,3.30
2019-04-27T18:18:27.066Z,1.93
2019-04-27T18:20:55.795Z,3.00
2019-04-27T18:23:26.725Z,2.63
2019-04-27T18:26:17.557Z,2.73
2019-04-27T18:28:53.636Z,2.90
2019-04-27T18:31:20.836Z,2.50
2019-04-27T18:33:50.127Z,3.03
2019-04-27T18:36:19.444Z,2.80
2019-04-27T18:38:49.709Z,2.90
2019-04-27T18:41:19.816Z,2.83
2019-04-27T18:43:53.828Z,2.80
2019-04-27T18:46:24.671Z,2.90
2019-04-27T18:48:55.496Z,2.67
2019-04-27T18:51:41.694Z,3.27
2019-04-27T18:54:11.145Z,3.10
2019-04-27T18:56:41.774Z,3.13
2019-04-27T18:59:11.652Z,2.87
2019-04-27T19:01:40.938Z,2.87
2019-04-27T19:04:10.305Z,3.43
2019-04-27T19:06:42.152Z,3.43
2019-04-27T19:09:13.983Z,3.07
2019-04-27T19:11:54.165Z,3.10
2019-04-27T19:14:14.400Z,2.90
2019-04-27T19:16:43.815Z,3.33
2019-04-27T19:19:16.210Z,3.10
2019-04-27T19:21:48.735Z,2.80
2019-04-27T19:24:21.346Z,2.60
2019-04-27T19:27:15.338Z,3.20
2019-04-27T19:29:39.627Z,3.60
2019-04-27T19:32:10.480Z,3.20
2019-04-27T19:34:42.550Z,3.10
2019-04-27T19:37:12.654Z,2.97
2019-04-27T19:39:44.772Z,3.37
2019-04-27T19:42:15.286Z,3.10
2019-04-27T19:44:48.073Z,3.27
2019-04-27T19:47:20.349Z,2.97
2019-04-27T19:49:49.662Z,3.50
2019-04-27T19:52:22.579Z,3.10
2019-04-27T19:54:50.787Z,3.10
2019-04-27T19:57:31.764Z,2.97
2019-04-27T19:59:53.599Z,3.23
2019-04-27T20:02:26.134Z,3.20
2019-04-27T20:04:59.933Z,3.90
2019-04-27T20:07:30.772Z,3.37
2019-04-27T20:10:01.791Z,3.10
2019-04-27T20:12:32.784Z,3.73
2019-04-27T20:15:02.444Z,3.33
2019-04-27T20:17:34.808Z,3.97
2019-04-27T20:20:05.887Z,3.80
2019-04-27T20:22:35.288Z,3.77
2019-04-27T20:25:07.708Z,3.03
2019-04-27T20:27:46.070Z,3.60
2019-04-27T20:30:11.533Z,3.23
2019-04-27T20:32:43.695Z,3.10
2019-04-27T20:35:17.108Z,3.53
2019-04-27T20:37:46.580Z,3.90
2019-04-27T20:40:16.563Z,3.20
2019-04-27T20:42:46.048Z,3.33
2019-04-27T20:45:18.481Z,4.10
2019-04-27T20:47:47.876Z,4.33
2019-04-27T20:50:17.299Z,3.90
2019-04-27T20:52:49.744Z,3.40
2019-04-27T20:55:21.473Z,4.23
2019-04-27T20:57:59.583Z,4.53
2019-04-27T21:00:23.321Z,3.57
2019-04-27T21:02:57.011Z,3.53
2019-04-27T21:05:36.554Z,4.13
2019-04-27T21:08:12.930Z,4.33
2019-04-27T21:10:42.212Z,3.27
2019-04-27T21:13:11.537Z,3.23
2019-04-27T21:15:43.644Z,3.27
2019-04-27T21:18:13.033Z,3.10
2019-04-27T21:20:42.364Z,3.30
2019-04-27T21:23:12.178Z,3.63
2019-04-27T21:25:44.230Z,3.67
2019-04-27T21:28:18.094Z,3.87
2019-04-27T21:30:47.265Z,3.80
2019-04-27T21:33:16.599Z,3.43
2019-04-27T21:35:51.181Z,3.37
2019-04-27T21:38:21.734Z,3.70
2019-04-27T21:40:51.110Z,3.80
2019-04-27T21:43:23.379Z,3.63
2019-04-27T21:45:55.762Z,3.27
2019-04-27T21:48:25.618Z,4.13
2019-04-27T21:50:54.899Z,4.10
2019-04-27T21:53:25.868Z,3.80
2019-04-27T21:56:02.809Z,3.30
2019-04-27T21:58:33.829Z,4.13
2019-04-27T22:01:09.028Z,4.57
2019-04-27T22:03:38.567Z,3.87
2019-04-27T22:06:09.510Z,4.13
2019-04-27T22:08:40.882Z,4.50
2019-04-27T22:11:12.844Z,3.53
2019-04-27T22:13:42.438Z,4.20
2019-04-27T22:16:13.126Z,4.17
2019-04-27T22:18:45.211Z,4.30
2019-04-27T22:21:14.817Z,3.90
2019-04-27T22:23:53.494Z,4.07
2019-04-27T22:26:22.933Z,3.67
2019-04-27T22:28:52.392Z,3.80
2019-04-27T22:31:24.858Z,3.43
2019-04-27T22:33:54.722Z,3.87
2019-04-27T22:36:27.940Z,4.03
2019-04-27T22:38:59.255Z,4.43
2019-04-27T22:41:42.781Z,4.07
2019-04-27T22:44:13.792Z,4.47
2019-04-27T22:46:44.739Z,4.60
2019-04-27T22:49:14.131Z,4.33
2019-04-27T22:51:43.518Z,4.10
2019-04-27T22:54:12.831Z,3.83
2019-04-27T22:56:43.778Z,4.13
2019-04-27T22:59:23.566Z,3.07
2019-04-27T23:01:55.300Z,4.53
2019-04-27T23:04:37.847Z,3.47
2019-04-27T23:07:11.052Z,3.73
2019-04-27T23:09:40.746Z,3.63
2019-04-27T23:12:13.182Z,4.30
2019-04-27T23:14:42.559Z,3.53
2019-04-27T23:17:19.592Z,3.50
2019-04-27T23:19:48.932Z,3.43
2019-04-27T23:22:21.393Z,3.70
2019-04-27T23:24:51.867Z,4.60
2019-04-27T23:27:21.950Z,4.03
2019-04-27T23:29:51.612Z,3.90
2019-04-27T23:32:26.545Z,3.70
2019-04-27T23:34:55.862Z,4.13
2019-04-27T23:37:25.151Z,4.17
2019-04-27T23:39:57.449Z,4.07
2019-04-27T23:42:31.611Z,4.07
2019-04-27T23:45:04.790Z,3.50
2019-04-27T23:47:34.117Z,3.80
2019-04-27T23:50:06.089Z,3.77
2019-04-27T23:52:53.545Z,3.07
2019-04-27T23:55:25.879Z,3.13
2019-04-27T23:57:57.228Z,3.67
